Arcola, Texas
Current Conditions -  °F | °C
As of 4:55 PM on Saturday 25 Oct 2014 (Local Time) from KAXH Reporting Station
Clear Clear  
Wind Chill: 77°   Ceiling: Unl
Heat Index: 78°   Visibility: 10mi
Dew Point: 51°   Wind: 5mph
Humidity: 41%   Direction: 70°ENE
Pressure: 30.1"   Gusts: NA
Location:  29.4042°N, 95.4477°W
Report Text: KAXH 252155Z AUTO 07004KT 10SM CLR 25/11 A3010 RMK AO2 T02500108
Loading
Personal Weather Stations






























Interactive Weather Map
Tropical Storm Tracking
New forecast layout! Learn more

10-Day Weather Forecast

Advertisements
Track Severe Weather on mobile